sensor_id;sensor_type;location;lat;lon;timestamp;P1;durP1;ratioP1;P2;durP2;ratioP2
22851;SDS011;11592;45.460;9.240;2022-08-07T00:01:15;2.40;;;1.48;;
22851;SDS011;11592;45.460;9.240;2022-08-07T00:04:05;2.42;;;1.60;;
22851;SDS011;11592;45.460;9.240;2022-08-07T00:06:36;2.25;;;1.67;;
22851;SDS011;11592;45.460;9.240;2022-08-07T00:09:17;1.70;;;1.48;;
22851;SDS011;11592;45.460;9.240;2022-08-07T00:11:48;1.65;;;1.55;;
22851;SDS011;11592;45.460;9.240;2022-08-07T00:14:24;3.65;;;1.65;;
22851;SDS011;11592;45.460;9.240;2022-08-07T00:16:56;3.05;;;1.63;;
22851;SDS011;11592;45.460;9.240;2022-08-07T00:19:25;3.80;;;1.58;;
22851;SDS011;11592;45.460;9.240;2022-08-07T00:22:13;2.75;;;1.73;;
22851;SDS011;11592;45.460;9.240;2022-08-07T00:25:00;2.67;;;1.90;;
22851;SDS011;11592;45.460;9.240;2022-08-07T00:27:28;3.17;;;2.20;;
22851;SDS011;11592;45.460;9.240;2022-08-07T00:30:15;5.43;;;2.30;;
22851;SDS011;11592;45.460;9.240;2022-08-07T00:32:52;4.03;;;2.55;;
22851;SDS011;11592;45.460;9.240;2022-08-07T00:35:19;4.20;;;2.25;;
22851;SDS011;11592;45.460;9.240;2022-08-07T00:37:48;5.93;;;2.47;;
22851;SDS011;11592;45.460;9.240;2022-08-07T00:40:16;3.05;;;2.38;;
22851;SDS011;11592;45.460;9.240;2022-08-07T00:43:03;4.43;;;2.35;;
22851;SDS011;11592;45.460;9.240;2022-08-07T00:45:36;4.05;;;2.88;;
22851;SDS011;11592;45.460;9.240;2022-08-07T00:48:04;5.55;;;2.30;;
22851;SDS011;11592;45.460;9.240;2022-08-07T00:50:36;4.93;;;2.50;;
22851;SDS011;11592;45.460;9.240;2022-08-07T00:53:17;6.47;;;2.50;;
22851;SDS011;11592;45.460;9.240;2022-08-07T00:55:45;4.07;;;2.55;;
22851;SDS011;11592;45.460;9.240;2022-08-07T00:58:29;6.22;;;2.58;;
22851;SDS011;11592;45.460;9.240;2022-08-07T01:00:56;11.60;;;3.25;;
22851;SDS011;11592;45.460;9.240;2022-08-07T01:03:24;8.43;;;2.95;;
22851;SDS011;11592;45.460;9.240;2022-08-07T01:06:11;11.98;;;3.80;;
22851;SDS011;11592;45.460;9.240;2022-08-07T01:08:40;7.07;;;3.35;;
22851;SDS011;11592;45.460;9.240;2022-08-07T01:11:19;6.72;;;3.30;;
22851;SDS011;11592;45.460;9.240;2022-08-07T01:14:06;9.68;;;3.17;;
22851;SDS011;11592;45.460;9.240;2022-08-07T01:16:34;16.27;;;3.42;;
22851;SDS011;11592;45.460;9.240;2022-08-07T01:19:02;5.95;;;3.00;;
22851;SDS011;11592;45.460;9.240;2022-08-07T01:21:45;6.13;;;3.00;;
22851;SDS011;11592;45.460;9.240;2022-08-07T01:24:18;6.07;;;2.75;;
22851;SDS011;11592;45.460;9.240;2022-08-07T01:26:48;6.65;;;2.78;;
22851;SDS011;11592;45.460;9.240;2022-08-07T01:29:17;4.78;;;2.72;;
22851;SDS011;11592;45.460;9.240;2022-08-07T01:31:47;5.82;;;2.45;;
22851;SDS011;11592;45.460;9.240;2022-08-07T01:34:15;4.93;;;2.47;;
22851;SDS011;11592;45.460;9.240;2022-08-07T01:36:44;5.72;;;2.60;;
22851;SDS011;11592;45.460;9.240;2022-08-07T01:39:23;3.35;;;2.65;;
22851;SDS011;11592;45.460;9.240;2022-08-07T01:42:05;3.42;;;2.50;;
22851;SDS011;11592;45.460;9.240;2022-08-07T01:44:52;4.22;;;2.47;;
22851;SDS011;11592;45.460;9.240;2022-08-07T01:47:19;3.55;;;2.25;;
22851;SDS011;11592;45.460;9.240;2022-08-07T01:50:06;3.08;;;2.33;;
22851;SDS011;11592;45.460;9.240;2022-08-07T01:52:35;2.42;;;2.22;;
22851;SDS011;11592;45.460;9.240;2022-08-07T01:55:06;3.65;;;2.83;;
22851;SDS011;11592;45.460;9.240;2022-08-07T01:57:47;3.00;;;2.60;;
22851;SDS011;11592;45.460;9.240;2022-08-07T02:00:37;4.82;;;2.70;;
22851;SDS011;11592;45.460;9.240;2022-08-07T02:03:14;4.03;;;3.22;;
22851;SDS011;11592;45.460;9.240;2022-08-07T02:05:58;4.63;;;2.55;;
22851;SDS011;11592;45.460;9.240;2022-08-07T02:08:50;3.28;;;2.58;;
22851;SDS011;11592;45.460;9.240;2022-08-07T02:11:19;3.08;;;2.50;;
22851;SDS011;11592;45.460;9.240;2022-08-07T02:14:06;4.60;;;2.83;;
22851;SDS011;11592;45.460;9.240;2022-08-07T02:16:56;2.90;;;2.60;;
22851;SDS011;11592;45.460;9.240;2022-08-07T02:19:23;3.38;;;2.53;;
22851;SDS011;11592;45.460;9.240;2022-08-07T02:22:11;3.67;;;2.72;;
22851;SDS011;11592;45.460;9.240;2022-08-07T02:24:43;2.95;;;2.35;;
22851;SDS011;11592;45.460;9.240;2022-08-07T02:27:14;2.92;;;2.55;;
22851;SDS011;11592;45.460;9.240;2022-08-07T02:29:44;4.03;;;3.08;;
22851;SDS011;11592;45.460;9.240;2022-08-07T02:32:20;5.45;;;3.20;;
22851;SDS011;11592;45.460;9.240;2022-08-07T02:34:55;4.13;;;2.88;;
22851;SDS011;11592;45.460;9.240;2022-08-07T02:37:26;5.13;;;3.20;;
22851;SDS011;11592;45.460;9.240;2022-08-07T02:40:02;4.47;;;3.13;;
22851;SDS011;11592;45.460;9.240;2022-08-07T02:42:51;4.28;;;2.78;;
22851;SDS011;11592;45.460;9.240;2022-08-07T02:45:20;5.45;;;2.67;;
22851;SDS011;11592;45.460;9.240;2022-08-07T02:48:09;4.38;;;2.53;;
22851;SDS011;11592;45.460;9.240;2022-08-07T02:50:41;3.55;;;2.80;;
22851;SDS011;11592;45.460;9.240;2022-08-07T02:53:13;3.65;;;2.45;;
22851;SDS011;11592;45.460;9.240;2022-08-07T02:55:44;4.88;;;2.50;;
22851;SDS011;11592;45.460;9.240;2022-08-07T02:58:31;3.72;;;2.75;;
22851;SDS011;11592;45.460;9.240;2022-08-07T03:00:59;4.53;;;2.80;;
22851;SDS011;11592;45.460;9.240;2022-08-07T03:03:30;4.10;;;2.50;;
22851;SDS011;11592;45.460;9.240;2022-08-07T03:06:15;3.35;;;2.10;;
22851;SDS011;11592;45.460;9.240;2022-08-07T03:08:58;2.03;;;1.60;;
22851;SDS011;11592;45.460;9.240;2022-08-07T03:11:30;2.42;;;1.70;;
22851;SDS011;11592;45.460;9.240;2022-08-07T03:14:04;4.10;;;2.03;;
22851;SDS011;11592;45.460;9.240;2022-08-07T03:16:32;3.08;;;1.90;;
22851;SDS011;11592;45.460;9.240;2022-08-07T03:19:00;2.90;;;1.77;;
22851;SDS011;11592;45.460;9.240;2022-08-07T03:21:30;3.13;;;1.92;;
22851;SDS011;11592;45.460;9.240;2022-08-07T03:23:58;2.75;;;1.88;;
22851;SDS011;11592;45.460;9.240;2022-08-07T03:26:46;2.28;;;1.60;;
22851;SDS011;11592;45.460;9.240;2022-08-07T03:29:23;2.55;;;1.70;;
22851;SDS011;11592;45.460;9.240;2022-08-07T03:31:52;2.67;;;1.90;;
22851;SDS011;11592;45.460;9.240;2022-08-07T03:34:20;2.75;;;2.03;;
22851;SDS011;11592;45.460;9.240;2022-08-07T03:36:52;2.03;;;1.75;;
22851;SDS011;11592;45.460;9.240;2022-08-07T03:39:23;3.45;;;2.05;;
22851;SDS011;11592;45.460;9.240;2022-08-07T03:42:13;2.17;;;1.88;;
22851;SDS011;11592;45.460;9.240;2022-08-07T03:44:42;3.13;;;2.03;;
22851;SDS011;11592;45.460;9.240;2022-08-07T03:47:18;3.40;;;2.17;;
22851;SDS011;11592;45.460;9.240;2022-08-07T03:49:47;3.05;;;2.38;;
22851;SDS011;11592;45.460;9.240;2022-08-07T03:52:22;4.68;;;2.08;;
22851;SDS011;11592;45.460;9.240;2022-08-07T03:54:53;3.13;;;2.67;;
22851;SDS011;11592;45.460;9.240;2022-08-07T03:57:32;4.47;;;2.50;;
22851;SDS011;11592;45.460;9.240;2022-08-07T04:00:21;3.60;;;2.65;;
22851;SDS011;11592;45.460;9.240;2022-08-07T04:02:55;3.83;;;2.53;;
22851;SDS011;11592;45.460;9.240;2022-08-07T04:05:24;2.85;;;2.45;;
22851;SDS011;11592;45.460;9.240;2022-08-07T04:08:11;5.70;;;2.80;;
22851;SDS011;11592;45.460;9.240;2022-08-07T04:10:43;3.67;;;2.40;;
22851;SDS011;11592;45.460;9.240;2022-08-07T04:13:32;3.03;;;2.35;;
22851;SDS011;11592;45.460;9.240;2022-08-07T04:16:19;2.90;;;2.53;;
22851;SDS011;11592;45.460;9.240;2022-08-07T04:18:57;3.45;;;2.22;;
22851;SDS011;11592;45.460;9.240;2022-08-07T04:21:29;5.53;;;2.38;;
22851;SDS011;11592;45.460;9.240;2022-08-07T04:23:59;9.80;;;3.08;;
22851;SDS011;11592;45.460;9.240;2022-08-07T04:26:33;6.10;;;2.72;;
22851;SDS011;11592;45.460;9.240;2022-08-07T04:29:00;3.88;;;2.45;;
22851;SDS011;11592;45.460;9.240;2022-08-07T04:31:28;6.15;;;3.05;;
22851;SDS011;11592;45.460;9.240;2022-08-07T04:34:15;7.78;;;2.53;;
22851;SDS011;11592;45.460;9.240;2022-08-07T04:36:52;4.05;;;2.67;;
22851;SDS011;11592;45.460;9.240;2022-08-07T04:39:19;5.03;;;2.70;;
22851;SDS011;11592;45.460;9.240;2022-08-07T04:41:51;3.92;;;2.17;;
22851;SDS011;11592;45.460;9.240;2022-08-07T04:44:18;4.65;;;3.38;;
22851;SDS011;11592;45.460;9.240;2022-08-07T05:01:15;3.38;;;2.70;;
22851;SDS011;11592;45.460;9.240;2022-08-07T05:04:08;6.13;;;2.60;;
22851;SDS011;11592;45.460;9.240;2022-08-07T05:06:55;3.38;;;2.63;;
22851;SDS011;11592;45.460;9.240;2022-08-07T05:12:38;3.10;;;2.58;;
22851;SDS011;11592;45.460;9.240;2022-08-07T05:15:24;3.08;;;2.47;;
22851;SDS011;11592;45.460;9.240;2022-08-07T05:17:57;3.70;;;2.70;;
22851;SDS011;11592;45.460;9.240;2022-08-07T05:20:45;4.00;;;2.67;;
22851;SDS011;11592;45.460;9.240;2022-08-07T05:23:17;4.70;;;2.88;;
22851;SDS011;11592;45.460;9.240;2022-08-07T05:25:56;4.65;;;2.65;;
22851;SDS011;11592;45.460;9.240;2022-08-07T05:28:43;4.75;;;2.75;;
22851;SDS011;11592;45.460;9.240;2022-08-07T05:31:16;4.05;;;2.70;;
22851;SDS011;11592;45.460;9.240;2022-08-07T05:33:45;5.68;;;2.50;;
22851;SDS011;11592;45.460;9.240;2022-08-07T05:36:27;3.80;;;2.60;;
22851;SDS011;11592;45.460;9.240;2022-08-07T05:39:01;2.97;;;2.17;;
22851;SDS011;11592;45.460;9.240;2022-08-07T05:41:48;3.40;;;2.17;;
22851;SDS011;11592;45.460;9.240;2022-08-07T05:44:29;3.33;;;2.30;;
22851;SDS011;11592;45.460;9.240;2022-08-07T05:46:59;3.10;;;2.25;;
22851;SDS011;11592;45.460;9.240;2022-08-07T05:49:43;4.55;;;2.58;;
22851;SDS011;11592;45.460;9.240;2022-08-07T05:52:15;2.40;;;2.05;;
22851;SDS011;11592;45.460;9.240;2022-08-07T05:54:57;5.90;;;2.67;;
22851;SDS011;11592;45.460;9.240;2022-08-07T05:57:35;3.08;;;2.25;;
22851;SDS011;11592;45.460;9.240;2022-08-07T06:00:08;4.40;;;2.47;;
22851;SDS011;11592;45.460;9.240;2022-08-07T06:02:44;4.40;;;2.15;;
22851;SDS011;11592;45.460;9.240;2022-08-07T06:05:15;3.55;;;2.38;;
22851;SDS011;11592;45.460;9.240;2022-08-07T06:07:44;4.15;;;1.98;;
22851;SDS011;11592;45.460;9.240;2022-08-07T06:10:33;3.53;;;2.15;;
22851;SDS011;11592;45.460;9.240;2022-08-07T06:13:01;2.20;;;1.80;;
22851;SDS011;11592;45.460;9.240;2022-08-07T06:15:29;3.28;;;2.15;;
22851;SDS011;11592;45.460;9.240;2022-08-07T06:18:08;3.85;;;1.85;;
22851;SDS011;11592;45.460;9.240;2022-08-07T06:20:39;3.17;;;1.98;;
22851;SDS011;11592;45.460;9.240;2022-08-07T06:23:27;2.45;;;2.05;;
22851;SDS011;11592;45.460;9.240;2022-08-07T06:26:14;3.65;;;2.25;;
22851;SDS011;11592;45.460;9.240;2022-08-07T06:28:51;3.22;;;2.13;;
22851;SDS011;11592;45.460;9.240;2022-08-07T06:31:21;3.67;;;2.00;;
22851;SDS011;11592;45.460;9.240;2022-08-07T06:34:04;3.88;;;2.10;;
22851;SDS011;11592;45.460;9.240;2022-08-07T06:36:30;2.65;;;2.08;;
22851;SDS011;11592;45.460;9.240;2022-08-07T06:39:00;3.17;;;2.30;;
22851;SDS011;11592;45.460;9.240;2022-08-07T06:41:53;3.17;;;2.42;;
22851;SDS011;11592;45.460;9.240;2022-08-07T06:44:29;5.85;;;2.72;;
22851;SDS011;11592;45.460;9.240;2022-08-07T06:47:01;4.13;;;2.33;;
22851;SDS011;11592;45.460;9.240;2022-08-07T06:49:40;4.13;;;2.75;;
22851;SDS011;11592;45.460;9.240;2022-08-07T06:52:24;2.80;;;2.00;;
22851;SDS011;11592;45.460;9.240;2022-08-07T06:55:12;3.47;;;2.70;;
22851;SDS011;11592;45.460;9.240;2022-08-07T06:58:03;2.90;;;2.30;;
22851;SDS011;11592;45.460;9.240;2022-08-07T07:00:36;4.50;;;2.58;;
22851;SDS011;11592;45.460;9.240;2022-08-07T07:03:07;2.70;;;2.30;;
22851;SDS011;11592;45.460;9.240;2022-08-07T07:05:42;2.65;;;2.10;;
22851;SDS011;11592;45.460;9.240;2022-08-07T07:08:30;2.63;;;2.30;;
22851;SDS011;11592;45.460;9.240;2022-08-07T07:10:59;4.38;;;2.30;;
22851;SDS011;11592;45.460;9.240;2022-08-07T07:13:47;2.58;;;2.33;;
22851;SDS011;11592;45.460;9.240;2022-08-07T07:16:26;3.25;;;2.22;;
22851;SDS011;11592;45.460;9.240;2022-08-07T07:19:00;4.95;;;2.42;;
22851;SDS011;11592;45.460;9.240;2022-08-07T07:21:50;2.88;;;2.10;;
22851;SDS011;11592;45.460;9.240;2022-08-07T07:24:37;3.80;;;2.22;;
22851;SDS011;11592;45.460;9.240;2022-08-07T07:27:27;3.60;;;2.10;;
22851;SDS011;11592;45.460;9.240;2022-08-07T07:30:19;3.67;;;2.17;;
22851;SDS011;11592;45.460;9.240;2022-08-07T07:33:03;3.05;;;2.08;;
22851;SDS011;11592;45.460;9.240;2022-08-07T07:35:33;3.20;;;2.00;;
22851;SDS011;11592;45.460;9.240;2022-08-07T07:38:21;2.33;;;2.13;;
22851;SDS011;11592;45.460;9.240;2022-08-07T07:40:53;3.10;;;1.98;;
22851;SDS011;11592;45.460;9.240;2022-08-07T07:43:28;2.92;;;1.95;;
22851;SDS011;11592;45.460;9.240;2022-08-07T07:46:16;2.20;;;2.00;;
22851;SDS011;11592;45.460;9.240;2022-08-07T07:49:05;4.03;;;1.92;;
22851;SDS011;11592;45.460;9.240;2022-08-07T07:51:54;1.80;;;1.70;;
22851;SDS011;11592;45.460;9.240;2022-08-07T07:54:25;2.20;;;1.98;;
22851;SDS011;11592;45.460;9.240;2022-08-07T07:56:54;2.72;;;1.90;;
22851;SDS011;11592;45.460;9.240;2022-08-07T07:59:22;3.60;;;2.17;;
22851;SDS011;11592;45.460;9.240;2022-08-07T08:02:10;3.35;;;2.28;;
22851;SDS011;11592;45.460;9.240;2022-08-07T08:05:00;2.83;;;1.92;;
22851;SDS011;11592;45.460;9.240;2022-08-07T08:07:37;3.63;;;1.83;;
22851;SDS011;11592;45.460;9.240;2022-08-07T08:10:24;2.28;;;1.80;;
22851;SDS011;11592;45.460;9.240;2022-08-07T08:13:03;2.85;;;2.20;;
22851;SDS011;11592;45.460;9.240;2022-08-07T08:15:40;2.55;;;2.00;;
22851;SDS011;11592;45.460;9.240;2022-08-07T08:18:24;2.40;;;2.10;;
22851;SDS011;11592;45.460;9.240;2022-08-07T08:20:53;3.50;;;2.30;;
22851;SDS011;11592;45.460;9.240;2022-08-07T08:23:22;2.78;;;2.13;;
22851;SDS011;11592;45.460;9.240;2022-08-07T08:26:08;3.47;;;2.20;;
22851;SDS011;11592;45.460;9.240;2022-08-07T08:28:57;2.80;;;2.00;;
22851;SDS011;11592;45.460;9.240;2022-08-07T08:31:29;4.18;;;2.95;;
22851;SDS011;11592;45.460;9.240;2022-08-07T08:34:21;3.97;;;2.30;;
22851;SDS011;11592;45.460;9.240;2022-08-07T08:36:54;2.30;;;1.95;;
22851;SDS011;11592;45.460;9.240;2022-08-07T08:39:24;2.95;;;1.88;;
22851;SDS011;11592;45.460;9.240;2022-08-07T08:50:21;5.10;;;2.60;;
22851;SDS011;11592;45.460;9.240;2022-08-07T08:56:05;3.10;;;2.35;;
22851;SDS011;11592;45.460;9.240;2022-08-07T08:59:24;2.40;;;2.20;;
22851;SDS011;11592;45.460;9.240;2022-08-07T09:02:08;3.05;;;2.40;;
22851;SDS011;11592;45.460;9.240;2022-08-07T09:10:22;2.92;;;2.60;;
22851;SDS011;11592;45.460;9.240;2022-08-07T09:16:04;3.17;;;2.30;;
22851;SDS011;11592;45.460;9.240;2022-08-07T09:19:06;3.22;;;2.35;;
22851;SDS011;11592;45.460;9.240;2022-08-07T09:24:58;2.90;;;2.30;;
22851;SDS011;11592;45.460;9.240;2022-08-07T09:27:54;3.80;;;2.70;;
22851;SDS011;11592;45.460;9.240;2022-08-07T09:31:07;3.42;;;3.13;;
22851;SDS011;11592;45.460;9.240;2022-08-07T09:36:28;6.57;;;3.92;;
22851;SDS011;11592;45.460;9.240;2022-08-07T09:48:10;7.40;;;4.65;;
22851;SDS011;11592;45.460;9.240;2022-08-07T09:50:49;6.72;;;3.50;;
22851;SDS011;11592;45.460;9.240;2022-08-07T09:53:59;4.70;;;3.30;;
22851;SDS011;11592;45.460;9.240;2022-08-07T10:16:41;4.63;;;2.95;;
22851;SDS011;11592;45.460;9.240;2022-08-07T10:30:38;6.25;;;2.22;;
22851;SDS011;11592;45.460;9.240;2022-08-07T10:36:49;5.00;;;2.30;;
22851;SDS011;11592;45.460;9.240;2022-08-07T10:39:35;3.95;;;2.20;;
22851;SDS011;11592;45.460;9.240;2022-08-07T10:45:32;3.45;;;2.20;;
22851;SDS011;11592;45.460;9.240;2022-08-07T10:53:19;3.40;;;2.30;;
22851;SDS011;11592;45.460;9.240;2022-08-07T10:59:14;3.38;;;2.30;;
22851;SDS011;11592;45.460;9.240;2022-08-07T11:02:15;4.55;;;2.05;;
22851;SDS011;11592;45.460;9.240;2022-08-07T11:10:42;2.47;;;2.13;;
22851;SDS011;11592;45.460;9.240;2022-08-07T11:16:34;2.30;;;1.75;;
22851;SDS011;11592;45.460;9.240;2022-08-07T11:22:14;4.32;;;2.03;;
22851;SDS011;11592;45.460;9.240;2022-08-07T11:25:23;3.83;;;2.00;;
22851;SDS011;11592;45.460;9.240;2022-08-07T11:30:52;2.28;;;1.90;;
22851;SDS011;11592;45.460;9.240;2022-08-07T11:39:31;4.63;;;2.20;;
22851;SDS011;11592;45.460;9.240;2022-08-07T11:42:38;2.45;;;2.00;;
22851;SDS011;11592;45.460;9.240;2022-08-07T11:45:29;3.15;;;2.28;;
22851;SDS011;11592;45.460;9.240;2022-08-07T11:48:25;4.18;;;2.20;;
22851;SDS011;11592;45.460;9.240;2022-08-07T12:00:18;4.93;;;2.10;;
22851;SDS011;11592;45.460;9.240;2022-08-07T12:18:20;2.10;;;1.90;;
22851;SDS011;11592;45.460;9.240;2022-08-07T12:21:25;2.10;;;1.90;;
22851;SDS011;11592;45.460;9.240;2022-08-07T12:28:03;2.95;;;1.70;;
22851;SDS011;11592;45.460;9.240;2022-08-07T12:30:38;3.40;;;2.30;;
22851;SDS011;11592;45.460;9.240;2022-08-07T12:33:18;6.28;;;2.10;;
22851;SDS011;11592;45.460;9.240;2022-08-07T12:36:09;2.63;;;2.20;;
22851;SDS011;11592;45.460;9.240;2022-08-07T12:38:38;2.05;;;1.83;;
22851;SDS011;11592;45.460;9.240;2022-08-07T12:41:12;2.92;;;2.17;;
22851;SDS011;11592;45.460;9.240;2022-08-07T12:43:41;2.00;;;1.83;;
22851;SDS011;11592;45.460;9.240;2022-08-07T12:52:14;4.70;;;1.88;;
22851;SDS011;11592;45.460;9.240;2022-08-07T12:54:52;2.50;;;2.03;;
22851;SDS011;11592;45.460;9.240;2022-08-07T12:57:35;2.40;;;2.20;;
22851;SDS011;11592;45.460;9.240;2022-08-07T13:00:26;4.57;;;1.95;;
22851;SDS011;11592;45.460;9.240;2022-08-07T13:06:33;3.22;;;2.00;;
22851;SDS011;11592;45.460;9.240;2022-08-07T13:09:39;4.05;;;2.10;;
22851;SDS011;11592;45.460;9.240;2022-08-07T13:15:31;3.83;;;2.00;;
22851;SDS011;11592;45.460;9.240;2022-08-07T13:21:01;10.10;;;2.10;;
22851;SDS011;11592;45.460;9.240;2022-08-07T13:24:22;4.05;;;1.83;;
22851;SDS011;11592;45.460;9.240;2022-08-07T13:32:44;1.90;;;1.70;;
22851;SDS011;11592;45.460;9.240;2022-08-07T13:35:56;6.22;;;1.80;;
22851;SDS011;11592;45.460;9.240;2022-08-07T13:38:38;2.80;;;1.88;;
22851;SDS011;11592;45.460;9.240;2022-08-07T13:44:06;3.08;;;1.80;;
22851;SDS011;11592;45.460;9.240;2022-08-07T13:46:41;1.65;;;1.55;;
22851;SDS011;11592;45.460;9.240;2022-08-07T13:49:16;1.88;;;1.42;;
22851;SDS011;11592;45.460;9.240;2022-08-07T13:52:06;1.88;;;1.55;;
22851;SDS011;11592;45.460;9.240;2022-08-07T13:54:54;1.65;;;1.55;;
22851;SDS011;11592;45.460;9.240;2022-08-07T13:57:27;3.97;;;2.08;;
22851;SDS011;11592;45.460;9.240;2022-08-07T14:00:03;2.20;;;1.95;;
22851;SDS011;11592;45.460;9.240;2022-08-07T14:02:39;2.42;;;1.55;;
22851;SDS011;11592;45.460;9.240;2022-08-07T14:05:20;3.28;;;1.60;;
22851;SDS011;11592;45.460;9.240;2022-08-07T14:08:02;2.65;;;1.50;;
22851;SDS011;11592;45.460;9.240;2022-08-07T14:10:35;1.30;;;1.20;;
22851;SDS011;11592;45.460;9.240;2022-08-07T14:13:07;2.90;;;1.23;;
22851;SDS011;11592;45.460;9.240;2022-08-07T14:15:42;1.45;;;1.30;;
22851;SDS011;11592;45.460;9.240;2022-08-07T14:18:18;3.78;;;1.38;;
22851;SDS011;11592;45.460;9.240;2022-08-07T14:20:59;2.85;;;1.30;;
22851;SDS011;11592;45.460;9.240;2022-08-07T14:23:34;1.52;;;1.42;;
22851;SDS011;11592;45.460;9.240;2022-08-07T14:26:25;1.63;;;1.48;;
22851;SDS011;11592;45.460;9.240;2022-08-07T14:28:58;1.98;;;1.30;;
22851;SDS011;11592;45.460;9.240;2022-08-07T14:31:47;1.52;;;1.42;;
22851;SDS011;11592;45.460;9.240;2022-08-07T14:34:38;1.60;;;1.48;;
22851;SDS011;11592;45.460;9.240;2022-08-07T14:37:11;2.58;;;1.50;;
22851;SDS011;11592;45.460;9.240;2022-08-07T14:39:41;1.30;;;1.20;;
22851;SDS011;11592;45.460;9.240;2022-08-07T14:42:30;1.77;;;1.45;;
22851;SDS011;11592;45.460;9.240;2022-08-07T14:45:20;1.75;;;1.40;;
22851;SDS011;11592;45.460;9.240;2022-08-07T14:48:13;1.63;;;1.52;;
22851;SDS011;11592;45.460;9.240;2022-08-07T14:50:52;1.70;;;1.60;;
22851;SDS011;11592;45.460;9.240;2022-08-07T14:53:22;2.38;;;1.50;;
22851;SDS011;11592;45.460;9.240;2022-08-07T14:56:11;2.03;;;1.60;;
22851;SDS011;11592;45.460;9.240;2022-08-07T14:58:56;2.03;;;1.50;;
22851;SDS011;11592;45.460;9.240;2022-08-07T15:01:28;1.73;;;1.50;;
22851;SDS011;11592;45.460;9.240;2022-08-07T15:04:16;1.50;;;1.40;;
22851;SDS011;11592;45.460;9.240;2022-08-07T15:06:50;1.80;;;1.45;;
22851;SDS011;11592;45.460;9.240;2022-08-07T15:09:18;1.50;;;1.40;;
22851;SDS011;11592;45.460;9.240;2022-08-07T15:12:11;1.58;;;1.48;;
22851;SDS011;11592;45.460;9.240;2022-08-07T15:17:33;1.40;;;1.30;;
22851;SDS011;11592;45.460;9.240;2022-08-07T15:20:22;1.55;;;1.40;;
22851;SDS011;11592;45.460;9.240;2022-08-07T15:23:12;2.97;;;1.70;;
22851;SDS011;11592;45.460;9.240;2022-08-07T15:25:55;1.67;;;1.33;;
22851;SDS011;11592;45.460;9.240;2022-08-07T15:28:25;2.20;;;1.25;;
22851;SDS011;11592;45.460;9.240;2022-08-07T15:31:13;1.83;;;1.50;;
22851;SDS011;11592;45.460;9.240;2022-08-07T15:34:03;1.40;;;1.25;;
22851;SDS011;11592;45.460;9.240;2022-08-07T15:36:39;1.15;;;1.05;;
22851;SDS011;11592;45.460;9.240;2022-08-07T15:39:27;2.60;;;1.35;;
22851;SDS011;11592;45.460;9.240;2022-08-07T15:45:27;1.35;;;1.20;;
22851;SDS011;11592;45.460;9.240;2022-08-07T15:48:28;1.58;;;1.48;;
22851;SDS011;11592;45.460;9.240;2022-08-07T15:50:58;2.33;;;1.38;;
22851;SDS011;11592;45.460;9.240;2022-08-07T15:53:40;1.25;;;1.15;;
22851;SDS011;11592;45.460;9.240;2022-08-07T15:56:19;1.52;;;1.40;;
22851;SDS011;11592;45.460;9.240;2022-08-07T15:59:00;1.50;;;1.40;;
22851;SDS011;11592;45.460;9.240;2022-08-07T16:01:32;1.38;;;1.27;;
22851;SDS011;11592;45.460;9.240;2022-08-07T16:04:08;1.40;;;1.30;;
22851;SDS011;11592;45.460;9.240;2022-08-07T16:06:57;2.47;;;1.33;;
22851;SDS011;11592;45.460;9.240;2022-08-07T16:18:09;1.40;;;1.30;;
22851;SDS011;11592;45.460;9.240;2022-08-07T16:32:43;1.77;;;1.60;;
22851;SDS011;11592;45.460;9.240;2022-08-07T16:41:32;3.60;;;1.70;;
22851;SDS011;11592;45.460;9.240;2022-08-07T16:56:31;3.00;;;1.77;;
22851;SDS011;11592;45.460;9.240;2022-08-07T17:05:41;2.13;;;1.92;;
22851;SDS011;11592;45.460;9.240;2022-08-07T17:14:45;2.15;;;1.70;;
22851;SDS011;11592;45.460;9.240;2022-08-07T17:17:34;2.50;;;1.67;;
22851;SDS011;11592;45.460;9.240;2022-08-07T17:31:38;1.60;;;1.50;;
22851;SDS011;11592;45.460;9.240;2022-08-07T17:34:33;4.95;;;3.45;;
22851;SDS011;11592;45.460;9.240;2022-08-07T17:40:18;1.80;;;1.60;;
22851;SDS011;11592;45.460;9.240;2022-08-07T17:43:13;3.40;;;1.70;;
22851;SDS011;11592;45.460;9.240;2022-08-07T17:45:54;1.90;;;1.70;;
22851;SDS011;11592;45.460;9.240;2022-08-07T17:48:38;4.32;;;1.80;;
22851;SDS011;11592;45.460;9.240;2022-08-07T17:51:28;2.33;;;1.80;;
22851;SDS011;11592;45.460;9.240;2022-08-07T17:54:27;1.80;;;1.55;;
22851;SDS011;11592;45.460;9.240;2022-08-07T18:00:27;1.50;;;1.40;;
22851;SDS011;11592;45.460;9.240;2022-08-07T18:03:17;1.70;;;1.60;;
22851;SDS011;11592;45.460;9.240;2022-08-07T18:06:13;2.30;;;1.40;;
22851;SDS011;11592;45.460;9.240;2022-08-07T18:09:02;1.70;;;1.60;;
22851;SDS011;11592;45.460;9.240;2022-08-07T18:11:49;2.00;;;1.80;;
22851;SDS011;11592;45.460;9.240;2022-08-07T18:14:42;2.03;;;1.75;;
22851;SDS011;11592;45.460;9.240;2022-08-07T18:17:33;3.13;;;1.80;;
22851;SDS011;11592;45.460;9.240;2022-08-07T18:20:33;1.83;;;1.65;;
22851;SDS011;11592;45.460;9.240;2022-08-07T18:24:13;2.20;;;1.88;;
22851;SDS011;11592;45.460;9.240;2022-08-07T18:30:14;4.57;;;1.73;;
22851;SDS011;11592;45.460;9.240;2022-08-07T18:36:31;3.38;;;1.80;;
22851;SDS011;11592;45.460;9.240;2022-08-07T18:42:20;1.63;;;1.52;;
22851;SDS011;11592;45.460;9.240;2022-08-07T18:45:18;3.08;;;2.03;;
22851;SDS011;11592;45.460;9.240;2022-08-07T18:48:12;2.92;;;1.98;;
22851;SDS011;11592;45.460;9.240;2022-08-07T18:51:42;2.15;;;1.80;;
22851;SDS011;11592;45.460;9.240;2022-08-07T19:00:11;1.90;;;1.80;;
22851;SDS011;11592;45.460;9.240;2022-08-07T19:05:50;2.03;;;1.83;;
22851;SDS011;11592;45.460;9.240;2022-08-07T19:11:26;2.40;;;2.00;;
22851;SDS011;11592;45.460;9.240;2022-08-07T19:14:12;4.57;;;2.05;;
22851;SDS011;11592;45.460;9.240;2022-08-07T19:16:48;2.30;;;2.10;;
22851;SDS011;11592;45.460;9.240;2022-08-07T19:22:08;4.53;;;2.00;;
22851;SDS011;11592;45.460;9.240;2022-08-07T19:24:56;2.10;;;1.80;;
22851;SDS011;11592;45.460;9.240;2022-08-07T19:27:33;2.95;;;2.00;;
22851;SDS011;11592;45.460;9.240;2022-08-07T19:30:24;2.53;;;2.05;;
22851;SDS011;11592;45.460;9.240;2022-08-07T19:33:16;2.50;;;1.67;;
22851;SDS011;11592;45.460;9.240;2022-08-07T19:35:58;3.83;;;1.90;;
22851;SDS011;11592;45.460;9.240;2022-08-07T19:38:26;4.72;;;1.80;;
22851;SDS011;11592;45.460;9.240;2022-08-07T19:40:57;2.10;;;1.73;;
22851;SDS011;11592;45.460;9.240;2022-08-07T19:43:28;5.80;;;1.92;;
22851;SDS011;11592;45.460;9.240;2022-08-07T19:46:16;3.47;;;1.83;;
22851;SDS011;11592;45.460;9.240;2022-08-07T19:49:02;1.88;;;1.50;;
22851;SDS011;11592;45.460;9.240;2022-08-07T19:51:32;1.70;;;1.60;;
22851;SDS011;11592;45.460;9.240;2022-08-07T19:54:17;1.35;;;1.25;;
22851;SDS011;11592;45.460;9.240;2022-08-07T19:57:04;1.63;;;1.23;;
22851;SDS011;11592;45.460;9.240;2022-08-07T19:59:53;2.97;;;1.40;;
22851;SDS011;11592;45.460;9.240;2022-08-07T20:02:35;1.40;;;1.20;;
22851;SDS011;11592;45.460;9.240;2022-08-07T20:05:19;1.20;;;1.10;;
22851;SDS011;11592;45.460;9.240;2022-08-07T20:07:54;2.50;;;1.30;;
22851;SDS011;11592;45.460;9.240;2022-08-07T20:10:25;2.35;;;1.40;;
22851;SDS011;11592;45.460;9.240;2022-08-07T20:13:15;2.55;;;1.20;;
22851;SDS011;11592;45.460;9.240;2022-08-07T20:15:49;2.67;;;1.20;;
22851;SDS011;11592;45.460;9.240;2022-08-07T20:18:19;2.20;;;1.20;;
22851;SDS011;11592;45.460;9.240;2022-08-07T20:20:59;1.17;;;1.08;;
22851;SDS011;11592;45.460;9.240;2022-08-07T20:23:48;1.73;;;1.17;;
22851;SDS011;11592;45.460;9.240;2022-08-07T20:26:26;6.13;;;1.45;;
22851;SDS011;11592;45.460;9.240;2022-08-07T20:29:04;2.08;;;1.15;;
22851;SDS011;11592;45.460;9.240;2022-08-07T20:31:56;2.30;;;1.23;;
22851;SDS011;11592;45.460;9.240;2022-08-07T20:34:26;1.30;;;1.10;;
22851;SDS011;11592;45.460;9.240;2022-08-07T20:37:14;1.98;;;1.33;;
22851;SDS011;11592;45.460;9.240;2022-08-07T20:39:50;1.77;;;1.20;;